Latest Weather Observations for Proserpine

IDQ60801

Issued at 11:32 pm EST Tuesday 26 May 2015 (issued every 30 minutes, with the page automatically refreshed every 10 minutes)

About weather observations | Map of weather stations | Latest weather observations for QLD | Other Formats
Station Details ID: 033247 Name: PROSERPINE AIRPORT Lat: -20.49 Lon: 148.56 Height: 19.7 m
Data from the previous 72 hours. | See also: Recent months at Proserpine
Date/Time
EST
Temp
°C
App
Temp
°C
Dew
Point
Rel
Hum
%
Delta-T
°C
Wind Press
QNH
hPa
Press
MSL
hPa
Rain
since 9 am
mm
Dir
 
Spd
km/h
Gust
km/h
Spd
kts
Gust
kts
26/11:30pm 19.0 19.5 17.5 91 0.9 S 11 15 6 8 1021.5 1021.4 0.2
26/11:00pm 18.8 19.6 17.3 91 0.9 S 9 13 5 7 1021.9 1021.8 0.2
26/10:30pm 18.9 18.2 17.4 91 0.9 SSE 17 20 9 11 1022.0 1021.9 0.2
26/10:00pm 18.6 18.6 17.3 92 0.8 SSE 13 17 7 9 1022.1 1022.0 0.2
26/09:30pm 18.9 19.4 17.4 91 0.9 SSE 11 15 6 8 1022.1 1022.0 0.2
26/09:00pm 19.3 19.9 17.6 90 1.0 SSE 11 17 6 9 1022.2 1022.1 0.2
26/08:30pm 19.6 19.2 18.1 91 0.9 SSE 17 24 9 13 1022.5 1022.4 0.2
26/08:00pm 20.1 20.6 18.4 90 1.1 SSE 13 22 7 12 1022.4 1022.3 0.0
26/07:30pm 20.3 18.6 18.2 88 1.3 SE 24 37 13 20 1022.3 1022.2 0.0
26/07:00pm 21.5 21.7 18.5 83 1.9 SE 15 24 8 13 1021.9 1021.8 0.0
26/06:30pm 20.6 21.5 18.5 88 1.3 ESE 11 13 6 7 1021.5 1021.4 0.0
26/06:00pm 20.8 21.4 17.8 83 1.8 ESE 11 15 6 8 1021.1 1021.0 0.0
26/05:30pm 21.5 20.8 17.3 77 2.6 ESE 17 24 9 13 1020.9 1020.8 0.0
26/05:00pm 22.4 21.4 17.5 74 3.0 ESE 19 28 10 15 1020.6 1020.5 0.0
26/04:30pm 23.4 21.4 17.4 69 3.7 ESE 24 33 13 18 1020.5 1020.4 0.0
26/04:00pm 23.3 20.4 17.1 68 3.8 ESE 28 35 15 19 1020.4 1020.3 0.0
26/03:30pm 24.1 21.8 16.6 63 4.6 ESE 24 33 13 18 1020.2 1020.1 0.0
26/03:00pm 24.9 23.3 16.6 60 5.1 E 20 30 11 16 1020.4 1020.3 0.0
26/02:30pm 24.6 21.3 16.1 59 5.2 ESE 28 37 15 20 1020.7 1020.6 0.0
26/02:00pm 25.2 22.2 16.9 60 5.1 ESE 28 43 15 23 1021.0 1020.9 0.0
26/01:30pm 25.1 22.1 16.8 60 5.1 ESE 28 43 15 23 1021.2 1021.1 0.0
26/01:00pm 24.3 21.2 16.6 62 4.7 SE 28 39 15 21 1021.7 1021.6 0.0
26/12:30pm 24.6 21.2 16.8 62 4.8 ESE 30 39 16 21 1022.3 1022.2 0.0
26/12:00pm 24.5 21.5 16.7 61 4.8 ESE 28 43 15 23 1022.9 1022.8 0.0
26/11:30am 25.1 22.3 16.3 58 5.4 ESE 26 35 14 19 1022.9 1022.8 0.0
26/11:00am 25.2 22.2 17.7 63 4.7 ESE 30 39 16 21 1023.2 1023.1 0.0
26/10:30am 24.1 22.3 17.8 68 3.9 ESE 24 35 13 19 1023.6 1023.5 0.0
26/10:00am 23.6 20.8 17.3 67 3.9 ESE 28 39 15 21 1023.9 1023.8 0.0
26/09:30am 23.1 21.1 17.3 70 3.6 ESE 24 35 13 19 1024.0 1023.9 0.0
26/09:00am 21.7 20.8 17.7 78 2.5 SSE 19 28 10 15 1024.2 1024.1 2.8
26/08:30am 21.3 20.1 17.5 79 2.3 SSE 20 30 11 16 1024.0 1023.9 2.8
26/08:00am 20.4 20.1 17.4 83 1.8 SSE 15 22 8 12 1023.9 1023.8 2.8
26/07:30am 19.8 20.4 17.6 87 1.3 SSE 11 17 6 9 1023.9 1023.8 2.8
26/07:19am 19.7 20.3 17.8 89 1.2 SSE 11 15 6 8 1023.8 1023.7 2.8
26/07:00am 19.2 20.3 18.0 93 0.7 SSE 9 11 5 6 1023.6 1023.5 2.8
26/06:30am 18.9 18.3 17.6 92 0.8 S 17 22 9 12 1023.3 1023.2 2.6
26/06:29am 18.9 18.3 17.6 92 0.8 S 17 20 9 11 1023.3 1023.2 2.6
26/06:00am 18.9 19.1 17.6 92 0.8 SSE 13 19 7 10 1023.1 1023.0 2.6
26/05:59am 18.8 18.9 17.5 92 0.8 SSE 13 19 7 10 1023.1 1023.0 2.6
26/05:30am 18.6 20.2 17.8 95 0.5 S 6 7 3 4 1022.9 1022.8 2.6
26/05:19am 18.6 20.2 17.8 95 0.5 S 6 7 3 4 1023.0 1022.9 2.6
26/05:08am 18.6 20.2 17.8 95 0.5 SSE 6 7 3 4 1022.9 1022.8 2.4
26/05:00am 18.6 20.0 17.8 95 0.5 SSE 7 11 4 6 1022.9 1022.8 2.4
26/04:53am 18.6 19.6 17.8 95 0.5 S 9 13 5 7 1022.8 1022.7 2.2
26/04:30am 18.5 19.5 17.7 95 0.5 S 9 11 5 6 1023.0 1022.9 1.8
26/04:19am 18.5 18.7 17.7 95 0.5 S 13 17 7 9 1023.0 1022.9 1.6
26/04:00am 18.5 18.3 17.7 95 0.5 S 15 20 8 11 1022.9 1022.8 1.4
26/03:31am 18.7 19.0 17.9 95 0.5 S 13 19 7 10 1023.1 1023.0 0.8
26/03:30am 18.7 19.0 17.9 95 0.5 S 13 19 7 10 1023.0 1022.9 0.6
26/03:27am 18.6 18.8 17.6 94 0.6 S 13 19 7 10 1023.0 1022.9 0.6
26/03:14am 18.7 18.5 17.7 94 0.6 S 15 20 8 11 1022.9 1022.8 0.6
26/03:12am 18.7 18.9 17.7 94 0.6 S 13 20 7 11 1022.9 1022.8 0.6
26/03:00am 18.7 19.6 17.5 93 0.7 SSE 9 13 5 7 1023.1 1023.0 0.4
26/02:53am 18.8 19.4 17.6 93 0.7 SSE 11 17 6 9 1023.0 1022.9 0.0
26/02:52am 18.8 19.4 17.6 93 0.7 SSE 11 17 6 9 1023.0 1022.9 0.0
26/02:30am 18.8 18.2 17.5 92 0.8 S 17 26 9 14 1022.8 1022.7 0.0
26/02:00am 19.0 18.3 17.3 90 1.0 S 17 24 9 13 1023.1 1023.0 0.0
26/01:30am 19.1 18.5 17.6 91 0.9 S 17 24 9 13 1023.1 1023.0 0.0
26/01:00am 18.9 19.0 17.4 91 0.9 S 13 17 7 9 1023.2 1023.1 0.0
26/12:30am 19.1 19.2 17.4 90 1.0 S 13 17 7 9 1023.4 1023.3 0.0
26/12:00am 19.4 19.0 17.2 87 1.3 S 15 22 8 12 1023.5 1023.4 0.0
 
Date/Time
EST
Temp
°C
App
Temp
°C
Dew
Point
Rel
Hum
%
Delta-T
°C
Wind Press
QNH
hPa
Press
MSL
hPa
Rain
since 9 am
mm
Dir
 
Spd
km/h
Gust
km/h
Spd
kts
Gust
kts
25/11:30pm 19.7 19.8 17.5 87 1.3 S 13 19 7 10 1023.8 1023.7 0.0
25/11:00pm 19.6 19.2 17.2 86 1.5 S 15 20 8 11 1024.0 1023.9 0.0
25/10:30pm 20.0 18.9 17.2 84 1.7 S 19 24 10 13 1024.2 1024.1 0.0
25/10:00pm 19.7 19.2 16.9 84 1.7 S 15 20 8 11 1024.2 1024.1 0.0
25/09:30pm 19.6 18.8 17.0 85 1.6 S 17 24 9 13 1024.3 1024.2 0.0
25/09:00pm 19.8 19.3 17.0 84 1.7 S 15 20 8 11 1024.1 1024.0 0.0
25/08:30pm 20.3 19.5 17.1 82 2.0 SSE 17 24 9 13 1023.9 1023.8 0.0
25/08:00pm 21.0 21.2 17.6 81 2.1 SSE 13 19 7 10 1023.6 1023.5 0.0
25/07:30pm 20.6 20.3 18.2 86 1.5 SE 17 26 9 14 1023.3 1023.2 0.0
25/07:00pm 20.5 20.9 17.3 82 2.0 SSE 11 17 6 9 1023.2 1023.1 0.0
25/06:30pm 20.9 20.6 17.3 80 2.2 SE 15 20 8 11 1022.9 1022.8 0.0
25/06:00pm 21.6 21.0 17.6 78 2.5 SE 17 24 9 13 1022.8 1022.7 0.0
25/05:30pm 21.9 20.7 17.5 76 2.7 SE 20 28 11 15 1022.5 1022.4 0.0
25/05:00pm 22.4 21.4 18.0 76 2.7 ESE 20 30 11 16 1022.4 1022.3 0.0
25/04:30pm 23.1 21.3 17.8 72 3.3 ESE 24 35 13 19 1022.4 1022.3 0.0
25/04:00pm 23.3 21.3 17.3 69 3.7 ESE 24 32 13 17 1022.5 1022.4 0.0
25/03:30pm 23.5 20.9 17.7 70 3.6 ESE 28 41 15 22 1022.5 1022.4 0.0
25/03:00pm 23.4 21.2 17.8 71 3.5 ESE 26 37 14 20 1022.5 1022.4 0.0
25/02:30pm 25.5 22.5 16.9 59 5.3 ESE 28 39 15 21 1022.6 1022.5 0.0
25/02:00pm 25.3 22.5 16.4 57 5.4 ESE 26 37 14 20 1022.5 1022.4 0.0
25/01:30pm 25.2 22.3 17.1 60 5.0 ESE 28 37 15 20 1022.7 1022.6 0.0
25/01:00pm 25.3 22.5 17.2 61 5.0 ESE 28 39 15 21 1023.0 1022.9 0.0
25/12:30pm 25.1 22.6 18.1 65 4.4 SE 28 33 15 18 1023.4 1023.3 0.0
25/12:00pm 25.5 22.7 18.2 64 4.6 SE 30 41 16 22 1023.6 1023.5 0.0
25/11:30am 25.0 22.9 18.0 65 4.4 ESE 26 41 14 22 1023.9 1023.8 0.0
25/11:00am 25.1 23.1 19.2 70 3.8 SE 28 37 15 20 1024.2 1024.1 0.0
25/10:30am 24.2 21.6 17.7 67 4.1 SE 28 39 15 21 1024.9 1024.8 0.0
25/10:00am 22.9 21.2 18.2 75 2.9 ESE 24 30 13 16 1025.1 1025.0 0.0
25/09:30am 21.8 21.1 18.2 80 2.2 SSE 19 26 10 14 1025.1 1025.0 0.0
25/09:00am 21.5 21.0 19.2 87 1.5 SSE 20 26 11 14 1025.4 1025.3 4.8
25/08:30am 20.3 20.2 17.9 86 1.5 SSE 15 22 8 12 1025.0 1024.9 4.8
25/08:24am 20.5 20.6 18.4 88 1.3 SSE 15 22 8 12 1024.9 1024.8 4.8
25/08:07am 19.5 19.5 18.2 92 0.8 SSE 15 20 8 11 1024.5 1024.4 4.8
25/08:00am 19.3 19.2 17.8 91 0.9 SSE 15 22 8 12 1024.5 1024.4 4.6
25/07:30am 19.2 19.7 17.5 90 1.0 SSE 11 17 6 9 1024.2 1024.1 4.6
25/07:00am 18.8 18.9 17.5 92 0.8 SSE 13 17 7 9 1024.0 1023.9 4.6
25/06:53am 18.7 19.2 17.4 92 0.8 SSE 11 17 6 9 1023.9 1023.8 4.6
25/06:43am 18.7 18.0 17.4 92 0.8 SSE 17 24 9 13 1023.7 1023.6 4.6
25/06:30am 18.7 17.5 17.4 92 0.8 SSE 20 28 11 15 1023.8 1023.7 4.6
25/06:00am 18.6 17.2 16.9 90 1.0 SSE 20 28 11 15 1023.4 1023.3 4.6
25/05:30am 18.5 17.6 16.8 90 1.0 SSE 17 22 9 12 1022.9 1022.8 4.6
25/05:00am 18.9 18.1 17.0 89 1.1 SSE 17 24 9 13 1022.8 1022.7 4.6
25/04:30am 18.4 18.3 16.9 91 0.9 SSE 13 20 7 11 1022.7 1022.6 4.6
25/04:00am 18.7 18.2 17.0 90 1.0 SSE 15 24 8 13 1023.0 1022.9 4.6
25/03:30am 18.8 18.4 17.1 90 1.0 SSE 15 22 8 12 1023.0 1022.9 4.6
25/03:00am 18.7 18.2 17.0 90 1.0 SSE 15 22 8 12 1023.0 1022.9 4.6
25/02:30am 18.9 18.5 17.2 90 1.0 SSE 15 19 8 10 1023.1 1023.0 4.6
25/02:00am 19.0 18.7 17.3 90 1.0 SSE 15 19 8 10 1023.2 1023.1 4.6
25/01:30am 19.3 18.6 17.4 89 1.2 SSE 17 22 9 12 1023.6 1023.5 4.6
25/01:00am 19.1 18.0 17.2 89 1.1 SSE 19 26 10 14 1023.6 1023.5 4.6
25/12:30am 19.5 18.3 17.5 88 1.2 SSE 20 32 11 17 1024.0 1023.9 4.6
25/12:00am 19.3 18.2 17.3 88 1.2 SSE 19 26 10 14 1024.1 1024.0 4.6
 
Date/Time
EST
Temp
°C
App
Temp
°C
Dew
Point
Rel
Hum
%
Delta-T
°C
Wind Press
QNH
hPa
Press
MSL
hPa
Rain
since 9 am
mm
Dir
 
Spd
km/h
Gust
km/h
Spd
kts
Gust
kts
24/11:30pm 19.5 18.3 17.5 88 1.2 SSE 20 28 11 15 1024.1 1024.0 4.6
24/11:00pm 19.4 18.2 17.5 89 1.2 SSE 20 26 11 14 1023.8 1023.7 4.6
24/10:30pm 19.4 18.5 17.7 90 1.0 SSE 19 24 10 13 1023.8 1023.7 4.6
24/10:00pm 19.6 18.7 18.1 91 0.9 SSE 20 26 11 14 1023.5 1023.4 4.6
24/09:30pm 19.6 18.8 18.1 91 0.9 SSE 19 24 10 13 1023.6 1023.5 4.6
24/09:19pm 19.7 19.4 18.2 91 0.9 SSE 17 28 9 15 1023.6 1023.5 4.6
24/09:00pm 19.7 20.8 18.9 95 0.5 SSE 11 15 6 8 1023.7 1023.6 4.6
24/08:54pm 19.7 21.2 18.9 95 0.5 SE 9 15 5 8 1023.8 1023.7 4.4
24/08:30pm 19.7 21.6 18.9 95 0.5 SSE 7 13 4 7 1023.7 1023.6 3.8
24/08:21pm 19.8 21.0 19.0 95 0.5 SSE 11 17 6 9 1023.7 1023.6 2.8
24/08:17pm 19.8 20.2 19.0 95 0.5 SSE 15 22 8 12 1023.6 1023.5 2.2
24/08:00pm 19.9 19.4 19.1 95 0.5 SE 20 28 11 15 1023.5 1023.4 2.2
24/07:56pm 19.9 18.9 18.9 94 0.6 SSE 22 30 12 16 1023.5 1023.4 2.0
24/07:44pm 20.1 20.1 18.9 93 0.8 SSE 17 26 9 14 1023.4 1023.3 2.0
24/07:30pm 20.1 19.9 18.6 91 0.9 SE 17 24 9 13 1023.4 1023.3 2.0
24/07:00pm 20.8 20.9 18.4 86 1.5 SSE 15 22 8 12 1023.1 1023.0 2.0
24/06:30pm 21.3 20.5 18.5 84 1.8 SE 20 26 11 14 1022.7 1022.6 2.0
24/06:00pm 21.4 20.6 18.4 83 1.9 SE 20 30 11 16 1022.4 1022.3 2.0
24/05:30pm 21.6 20.4 18.4 82 2.0 SE 22 32 12 17 1022.2 1022.1 2.0
24/05:00pm 22.6 20.4 18.6 78 2.5 SE 28 37 15 20 1021.7 1021.6 2.0
24/04:30pm 22.8 20.7 18.1 75 2.9 SE 26 35 14 19 1021.2 1021.1 2.0
24/04:17pm 23.0 20.5 18.1 74 3.1 SE 28 46 15 25 1021.1 1021.0 2.0
24/04:00pm 22.9 19.5 17.6 72 3.3 SE 32 44 17 24 1020.9 1020.8 2.0
24/03:42pm 23.0 19.5 17.5 71 3.4 SE 32 50 17 27 1020.8 1020.7 2.0
24/03:30pm 23.5 20.1 18.2 72 3.3 SE 33 43 18 23 1020.7 1020.6 2.0
24/03:00pm 23.3 20.3 19.0 77 2.7 SE 33 48 18 26 1020.6 1020.5 2.0
24/02:30pm 24.1 21.1 18.7 72 3.4 SE 32 43 17 23 1020.5 1020.4 2.0
24/02:00pm 23.1 20.6 18.0 73 3.2 SE 28 39 15 21 1020.8 1020.7 2.0
24/01:30pm 22.6 19.6 18.6 78 2.5 SE 32 44 17 24 1020.9 1020.8 2.0
24/01:18pm 22.4 20.3 19.0 81 2.2 SE 28 39 15 21 1020.9 1020.8 2.0
24/01:12pm 22.4 20.7 19.9 86 1.6 SE 28 37 15 20 1021.0 1020.9 2.0
24/01:00pm 21.2 18.6 19.5 90 1.1 SE 32 43 17 23 1021.2 1021.1 2.0
24/12:54pm 20.7 20.3 19.4 92 0.8 SE 20 43 11 23 1021.4 1021.3 2.0
24/12:53pm 20.5 20.2 19.2 92 0.8 SE 19 41 10 22 1021.4 1021.3 2.0
24/12:30pm 19.6 19.8 18.6 94 0.6 SSE 15 22 8 12 1021.9 1021.8 1.8
24/12:25pm 19.6 19.8 18.6 94 0.6 SSE 15 22 8 12 1021.9 1021.8 1.8
24/12:01pm 19.6 19.2 18.1 91 0.9 SSE 17 26 9 14 1022.1 1022.0 1.4
24/12:00pm 19.8 19.5 18.3 91 0.9 SSE 17 26 9 14 1022.1 1022.0 1.4
24/11:51am 20.0 19.5 18.7 92 0.8 SE 19 24 10 13 1022.2 1022.1 1.4
24/11:30am 19.9 18.9 18.0 89 1.2 ESE 20 33 11 18 1022.3 1022.2 1.4
24/11:25am 20.1 19.3 17.9 87 1.4 ESE 19 26 10 14 1022.3 1022.2 1.4
24/11:16am 20.3 19.4 18.2 88 1.3 ESE 20 30 11 16 1022.3 1022.2 1.4
24/11:00am 20.2 19.8 18.1 88 1.3 SE 17 28 9 15 1022.4 1022.3 1.4
24/10:50am 20.2 18.8 18.0 87 1.4 SE 22 32 12 17 1022.3 1022.2 1.2
24/10:49am 20.3 19.0 18.1 87 1.4 SE 22 33 12 18 1022.3 1022.2 1.2
24/10:34am 20.1 18.5 17.5 85 1.6 SE 22 39 12 21 1022.5 1022.4 1.2
24/10:30am 20.2 18.8 18.0 87 1.4 SE 22 35 12 19 1022.5 1022.4 1.2
24/10:22am 20.2 19.4 18.5 90 1.1 SSE 20 37 11 20 1022.5 1022.4 1.2
24/10:19am 19.8 19.7 17.8 88 1.2 SSE 15 37 8 20 1022.6 1022.5 1.2
24/10:06am 19.0 20.4 17.8 93 0.7 SSE 7 11 4 6 1022.8 1022.7 1.2
24/10:00am 18.7 20.2 17.5 93 0.7 SE 6 9 3 5 1022.8 1022.7 1.2
24/09:30am 18.5 19.2 17.0 91 0.9 SSE 9 13 5 7 1022.8 1022.7 0.4
24/09:14am 19.0 19.0 17.1 89 1.2 SSE 13 20 7 11 1022.7 1022.6 0.0
24/09:00am 18.9 18.6 16.5 86 1.4 SSE 13 19 7 10 1022.6 1022.5 0.0
24/08:30am 19.4 18.7 16.4 83 1.8 SE 15 20 8 11 1022.3 1022.2 0.0
24/08:11am 18.7 19.1 16.3 86 1.4 ESE 9 19 5 10 1022.1 1022.0 0.0
24/08:00am 18.5 18.9 16.3 87 1.3 ESE 9 17 5 9 1021.9 1021.8 0.0
24/07:53am 18.7 18.2 15.8 83 1.7 ESE 13 19 7 10 1022.0 1021.9 0.0
24/07:37am 19.2 17.5 15.7 80 2.1 ESE 19 32 10 17 1021.8 1021.7 0.0
24/07:30am 19.3 19.5 15.8 80 2.1 E 9 17 5 9 1021.9 1021.8 0.0
24/07:23am 19.1 19.4 16.0 82 1.8 ESE 9 13 5 7 1021.7 1021.6 0.0
24/07:01am 18.5 17.7 16.1 86 1.4 SE 15 20 8 11 1021.3 1021.2 0.0
24/07:00am 18.5 17.7 16.1 86 1.4 SE 15 20 8 11 1021.3 1021.2 0.0
24/06:50am 18.4 16.8 16.0 86 1.4 SE 19 32 10 17 1021.3 1021.2 0.0
24/06:44am 18.8 16.5 15.7 82 1.8 SE 22 32 12 17 1021.2 1021.1 0.0
24/06:30am 19.6 17.5 15.3 76 2.5 SE 20 28 11 15 1021.0 1020.9 0.0
24/06:00am 19.5 18.0 15.2 76 2.5 SE 17 24 9 13 1020.6 1020.5 0.0
24/05:30am 19.4 17.8 15.1 76 2.5 SSE 17 26 9 14 1020.3 1020.2 0.0
24/05:00am 19.1 16.3 15.4 79 2.2 SE 24 35 13 19 1020.1 1020.0 0.0
24/04:30am 19.0 16.2 15.3 79 2.2 SSE 24 35 13 19 1020.0 1019.9 0.0
24/04:00am 18.7 16.9 15.6 82 1.8 SSE 19 28 10 15 1019.9 1019.8 0.0
24/03:59am 18.7 16.9 15.6 82 1.8 SSE 19 28 10 15 1019.9 1019.8 0.0
24/03:30am 18.3 16.6 15.7 85 1.5 SSE 19 26 10 14 1020.0 1019.9 0.0
24/03:16am 17.9 16.2 15.7 87 1.3 SSE 19 28 10 15 1020.1 1020.0 0.0
24/03:00am 17.8 15.8 15.6 87 1.3 SSE 20 28 11 15 1020.2 1020.1 0.0
24/02:57am 17.9 15.9 15.5 86 1.4 SSE 20 28 11 15 1020.1 1020.0 0.0
24/02:35am 18.2 16.3 15.3 83 1.7 SSE 19 26 10 14 1020.0 1019.9 0.0
24/02:30am 18.2 16.3 15.3 83 1.7 SSE 19 26 10 14 1020.0 1019.9 0.0
24/02:00am 17.4 16.4 14.7 84 1.6 S 13 19 7 10 1020.0 1019.9 0.0
24/01:30am 16.3 15.7 13.6 84 1.5 S 9 15 5 8 1020.2 1020.1 0.0
24/01:00am 14.9 13.3 12.8 87 1.2 S 13 19 7 10 1020.2 1020.1 0.0
24/12:30am 12.8 11.6 11.7 93 0.6 SW 9 9 5 5 1020.2 1020.1 0.0
24/12:00am 12.4 11.1 10.1 86 1.2 SW 7 9 4 5 1020.5 1020.4 0.0

Other Formats:

Comma delimited format used in spreadsheet applications
http://www.bom.gov.au/fwo/IDQ60801/IDQ60801.94365.axf

JavaScript Object Notation format (JSON) in row-major order
http://www.bom.gov.au/fwo/IDQ60801/IDQ60801.94365.json